Time;durP1;ratioP1;P1;durP2;ratioP2;P2;SDS_P1;SDS_P2;PMS_P1;PMS_P2;Temp;Humidity;BMP_temperature;BMP_pressure;BME280_temperature;BME280_humidity;BME280_pressure;Samples;Min_cycle;Max_cycle;Signal;HPM_P1;HPM_P2
2021/07/09 00:02:25;;;;;;;3.90;0.95;;;;;;;;;;5055316;28;20524;-61
2021/07/09 00:04:53;;;;;;;1.27;0.90;;;;;;;;;;5044388;28;20432;-61
2021/07/09 00:07:21;;;;;;;1.98;0.90;;;;;;;;;;5048535;28;20552;-61
2021/07/09 00:09:51;;;;;;;1.45;0.70;;;;;;;;;;5052723;28;20136;-61
2021/07/09 00:12:19;;;;;;;0.95;0.80;;;;;;;;;;5050994;28;20131;-61
2021/07/09 00:14:48;;;;;;;2.78;0.82;;;;;;;;;;5051087;28;20536;-61
2021/07/09 00:17:16;;;;;;;2.20;1.00;;;;;;;;;;5042307;28;20481;-60
2021/07/09 00:19:44;;;;;;;3.25;0.90;;;;;;;;;;5051067;28;20128;-60
2021/07/09 00:22:12;;;;;;;4.07;0.90;;;;;;;;;;5052245;28;20136;-61
2021/07/09 00:24:41;;;;;;;2.15;0.90;;;;;;;;;;5056530;28;20076;-61
2021/07/09 00:27:11;;;;;;;17.70;1.20;;;;;;;;;;5045492;28;20139;-60
2021/07/09 00:29:39;;;;;;;3.40;1.05;;;;;;;;;;5051251;28;20131;-61
2021/07/09 00:32:08;;;;;;;4.53;1.00;;;;;;;;;;5050540;28;20129;-60
2021/07/09 00:34:37;;;;;;;1.58;0.88;;;;;;;;;;5056182;28;20098;-61
2021/07/09 00:37:05;;;;;;;1.45;0.88;;;;;;;;;;5042805;28;20384;-61
2021/07/09 00:39:33;;;;;;;3.20;1.10;;;;;;;;;;5048066;28;20756;-60
2021/07/09 00:42:02;;;;;;;1.33;1.08;;;;;;;;;;5057794;28;20103;-60
2021/07/09 00:44:31;;;;;;;2.45;0.90;;;;;;;;;;5053532;28;20465;-60
2021/07/09 00:47:00;;;;;;;1.38;0.80;;;;;;;;;;5051485;28;20489;-60
2021/07/09 00:49:28;;;;;;;2.85;1.10;;;;;;;;;;5046040;28;20128;-61
2021/07/09 00:51:56;;;;;;;1.38;0.90;;;;;;;;;;5051891;28;20045;-61
2021/07/09 00:54:24;;;;;;;2.90;0.90;;;;;;;;;;5042343;28;20164;-61
2021/07/09 00:56:53;;;;;;;4.80;1.13;;;;;;;;;;5057278;28;20140;-60
2021/07/09 00:59:23;;;;;;;4.32;0.98;;;;;;;;;;5053032;28;20123;-61
2021/07/09 01:01:53;;;;;;;2.70;0.88;;;;;;;;;;5056127;28;20132;-60
2021/07/09 01:04:22;;;;;;;1.33;1.00;;;;;;;;;;5040143;28;20085;-62
2021/07/09 01:06:51;;;;;;;3.78;0.93;;;;;;;;;;5040069;28;20400;-61
2021/07/09 01:09:19;;;;;;;1.35;0.95;;;;;;;;;;5041187;28;20425;-60
2021/07/09 01:11:50;;;;;;;2.00;1.00;;;;;;;;;;5050899;28;20505;-61
2021/07/09 01:14:19;;;;;;;1.23;0.77;;;;;;;;;;5042411;28;20053;-61
2021/07/09 01:16:48;;;;;;;1.80;1.05;;;;;;;;;;5035803;28;20046;-60
2021/07/09 01:19:19;;;;;;;2.67;0.98;;;;;;;;;;5040881;28;20053;-60
2021/07/09 01:21:48;;;;;;;1.45;0.80;;;;;;;;;;5038128;28;20055;-60
2021/07/09 01:24:18;;;;;;;0.80;0.73;;;;;;;;;;5041247;28;20164;-60
2021/07/09 01:26:46;;;;;;;3.08;0.80;;;;;;;;;;5037976;28;20061;-60
2021/07/09 01:29:15;;;;;;;1.08;0.70;;;;;;;;;;5045773;28;20564;-61
2021/07/09 01:31:44;;;;;;;2.30;0.80;;;;;;;;;;5046933;28;20049;-60
2021/07/09 01:34:13;;;;;;;1.02;0.82;;;;;;;;;;5048716;28;20045;-61
2021/07/09 01:36:41;;;;;;;0.90;0.80;;;;;;;;;;5050174;28;20132;-60
2021/07/09 01:39:10;;;;;;;1.77;0.80;;;;;;;;;;5047588;28;20073;-61
2021/07/09 01:41:39;;;;;;;1.02;0.90;;;;;;;;;;5049346;28;20132;-61
2021/07/09 01:44:08;;;;;;;2.60;0.90;;;;;;;;;;5035981;28;20148;-61
2021/07/09 01:46:36;;;;;;;1.63;1.00;;;;;;;;;;5043383;28;20076;-61
2021/07/09 01:49:05;;;;;;;2.80;0.88;;;;;;;;;;5049653;28;20473;-61
2021/07/09 01:51:33;;;;;;;3.33;0.77;;;;;;;;;;5049150;28;20037;-61
2021/07/09 01:54:01;;;;;;;1.35;0.80;;;;;;;;;;5049861;28;20076;-60
2021/07/09 01:56:30;;;;;;;1.38;0.88;;;;;;;;;;5049478;28;20128;-60
2021/07/09 01:59:00;;;;;;;0.80;0.70;;;;;;;;;;5046279;28;20445;-60
2021/07/09 02:01:28;;;;;;;1.08;0.60;;;;;;;;;;5049376;28;20112;-61
2021/07/09 02:03:57;;;;;;;1.13;0.80;;;;;;;;;;5049831;28;20069;-60
2021/07/09 02:06:25;;;;;;;1.55;0.90;;;;;;;;;;5050275;28;20132;-61
2021/07/09 02:08:53;;;;;;;0.75;0.73;;;;;;;;;;5050908;28;20077;-60
2021/07/09 02:11:21;;;;;;;1.58;0.70;;;;;;;;;;5057772;28;20074;-60
2021/07/09 02:13:50;;;;;;;1.25;0.70;;;;;;;;;;5050210;28;20737;-60
2021/07/09 02:16:19;;;;;;;2.78;0.70;;;;;;;;;;5053992;28;20044;-60
2021/07/09 02:18:48;;;;;;;3.63;1.17;;;;;;;;;;5063957;28;20052;-60
2021/07/09 02:21:16;;;;;;;3.13;0.80;;;;;;;;;;5057744;28;20488;-61
2021/07/09 02:23:45;;;;;;;1.17;0.70;;;;;;;;;;5064122;28;20053;-62
2021/07/09 02:26:13;;;;;;;0.60;0.60;;;;;;;;;;5048843;28;20077;-61
2021/07/09 02:28:41;;;;;;;0.70;0.52;;;;;;;;;;5034848;28;20152;-61
2021/07/09 02:31:10;;;;;;;0.40;0.40;;;;;;;;;;5052702;28;20577;-61
2021/07/09 02:33:39;;;;;;;0.65;0.50;;;;;;;;;;5048638;28;21372;-62
2021/07/09 02:36:08;;;;;;;2.35;0.60;;;;;;;;;;5050857;28;20127;-62
2021/07/09 02:38:36;;;;;;;1.13;0.60;;;;;;;;;;5067199;28;20088;-61
2021/07/09 02:41:05;;;;;;;0.68;0.40;;;;;;;;;;5050289;28;20128;-61
2021/07/09 02:43:33;;;;;;;0.85;0.47;;;;;;;;;;5067021;28;20142;-62
2021/07/09 02:46:01;;;;;;;2.75;0.30;;;;;;;;;;5050162;28;20078;-61
2021/07/09 02:48:33;;;;;;;0.50;0.30;;;;;;;;;;5052804;28;20075;-62
2021/07/09 02:51:03;;;;;;;5.53;0.63;;;;;;;;;;5052095;28;20108;-61
2021/07/09 02:53:31;;;;;;;0.47;0.20;;;;;;;;;;5059153;28;20153;-61
2021/07/09 02:56:00;;;;;;;0.30;0.22;;;;;;;;;;5058635;28;20132;-62
2021/07/09 02:58:29;;;;;;;0.32;0.28;;;;;;;;;;5054667;28;20151;-61
2021/07/09 03:00:58;;;;;;;0.20;0.20;;;;;;;;;;5055150;28;20072;-62
2021/07/09 03:03:27;;;;;;;1.08;0.20;;;;;;;;;;5041756;28;20088;-62
2021/07/09 03:05:55;;;;;;;0.40;0.40;;;;;;;;;;5048192;28;20109;-62
2021/07/09 03:08:25;;;;;;;1.60;0.30;;;;;;;;;;5051774;28;20137;-62
2021/07/09 03:10:53;;;;;;;0.60;0.20;;;;;;;;;;5053696;28;20156;-61
2021/07/09 03:13:21;;;;;;;1.05;0.15;;;;;;;;;;5050817;28;20121;-61
2021/07/09 03:15:50;;;;;;;0.13;0.13;;;;;;;;;;5052712;28;20076;-61
2021/07/09 03:18:18;;;;;;;0.43;0.25;;;;;;;;;;5049058;28;20041;-61
2021/07/09 03:20:46;;;;;;;2.20;0.20;;;;;;;;;;5049963;28;20072;-61
2021/07/09 03:23:15;;;;;;;0.32;0.28;;;;;;;;;;5048559;28;20573;-62
2021/07/09 03:25:45;;;;;;;0.63;0.20;;;;;;;;;;5049252;28;20576;-62
2021/07/09 03:28:13;;;;;;;0.30;0.20;;;;;;;;;;5049940;28;20051;-61
2021/07/09 03:30:42;;;;;;;0.30;0.20;;;;;;;;;;5050603;28;20388;-61
2021/07/09 03:33:11;;;;;;;0.13;0.13;;;;;;;;;;5051361;28;20144;-62
2021/07/09 03:35:40;;;;;;;0.20;0.20;;;;;;;;;;5045587;28;20051;-61
2021/07/09 03:38:08;;;;;;;1.70;0.30;;;;;;;;;;5051458;28;20492;-62
2021/07/09 03:40:36;;;;;;;1.58;0.20;;;;;;;;;;5038380;28;20101;-62
2021/07/09 03:43:06;;;;;;;1.27;0.10;;;;;;;;;;5045280;28;20053;-62
2021/07/09 03:45:35;;;;;;;0.13;0.13;;;;;;;;;;5047427;28;20101;-61
2021/07/09 03:48:03;;;;;;;0.47;0.25;;;;;;;;;;5049718;28;20131;-62
2021/07/09 03:50:31;;;;;;;0.30;0.20;;;;;;;;;;5045402;28;20063;-61
2021/07/09 03:53:00;;;;;;;0.50;0.25;;;;;;;;;;5044598;28;20123;-62
2021/07/09 03:55:29;;;;;;;1.95;0.30;;;;;;;;;;5035248;28;20069;-62
2021/07/09 03:57:57;;;;;;;0.73;0.30;;;;;;;;;;5046017;28;20161;-62
2021/07/09 04:00:27;;;;;;;0.40;0.30;;;;;;;;;;5049530;28;20055;-62
2021/07/09 04:02:55;;;;;;;0.25;0.25;;;;;;;;;;5065154;28;20515;-62
2021/07/09 04:05:23;;;;;;;0.82;0.40;;;;;;;;;;5047975;28;20136;-61
2021/07/09 04:07:52;;;;;;;0.30;0.30;;;;;;;;;;5047391;28;20504;-62
2021/07/09 04:10:21;;;;;;;1.38;0.40;;;;;;;;;;5036166;28;20094;-63
2021/07/09 04:12:49;;;;;;;0.57;0.50;;;;;;;;;;5052209;28;20080;-62
2021/07/09 04:15:19;;;;;;;0.30;0.30;;;;;;;;;;5051861;28;20087;-61
2021/07/09 04:17:49;;;;;;;0.90;0.77;;;;;;;;;;5044789;28;20073;-63
2021/07/09 04:20:17;;;;;;;0.95;0.50;;;;;;;;;;5047297;28;20095;-63
2021/07/09 04:22:46;;;;;;;2.13;0.80;;;;;;;;;;5049681;28;20081;-63
2021/07/09 04:25:14;;;;;;;0.63;0.47;;;;;;;;;;5047770;28;20088;-62
2021/07/09 04:27:43;;;;;;;2.40;1.20;;;;;;;;;;5050410;28;20077;-62
2021/07/09 04:30:12;;;;;;;1.85;0.50;;;;;;;;;;5047533;28;20055;-62
2021/07/09 04:32:40;;;;;;;1.80;0.60;;;;;;;;;;5050823;28;20037;-61
2021/07/09 04:35:11;;;;;;;0.70;0.60;;;;;;;;;;5049425;28;20101;-62
2021/07/09 04:37:40;;;;;;;0.57;0.55;;;;;;;;;;5049370;28;20409;-62
2021/07/09 04:40:08;;;;;;;0.60;0.60;;;;;;;;;;5045576;28;20150;-62
2021/07/09 04:42:37;;;;;;;1.02;0.65;;;;;;;;;;5046616;28;20151;-61
2021/07/09 04:45:06;;;;;;;0.85;0.60;;;;;;;;;;5045539;28;20040;-62
2021/07/09 04:47:34;;;;;;;0.50;0.45;;;;;;;;;;5042175;28;20128;-61
2021/07/09 04:50:02;;;;;;;0.75;0.60;;;;;;;;;;5043023;28;20049;-61
2021/07/09 04:52:32;;;;;;;1.08;0.77;;;;;;;;;;5040775;28;20132;-62
2021/07/09 04:55:00;;;;;;;2.42;0.60;;;;;;;;;;5038934;28;20124;-61
2021/07/09 04:57:28;;;;;;;0.80;0.70;;;;;;;;;;5043915;28;20125;-62
2021/07/09 04:59:57;;;;;;;0.70;0.60;;;;;;;;;;5047494;28;20164;-61
2021/07/09 05:02:25;;;;;;;1.60;0.80;;;;;;;;;;5044071;28;20059;-62
2021/07/09 05:04:54;;;;;;;1.58;0.90;;;;;;;;;;5043843;28;20055;-62
2021/07/09 05:07:22;;;;;;;1.00;0.80;;;;;;;;;;5040760;28;20148;-61
2021/07/09 05:09:52;;;;;;;1.50;1.00;;;;;;;;;;5045020;28;20131;-61
2021/07/09 05:12:20;;;;;;;2.22;0.90;;;;;;;;;;5045953;28;20133;-61
2021/07/09 05:14:49;;;;;;;0.80;0.70;;;;;;;;;;5054081;28;20069;-61
2021/07/09 05:17:18;;;;;;;1.30;0.93;;;;;;;;;;5046222;28;20135;-61
2021/07/09 05:19:46;;;;;;;1.10;0.90;;;;;;;;;;5039665;28;20143;-61
2021/07/09 05:22:14;;;;;;;1.45;0.98;;;;;;;;;;5040354;28;20052;-62
2021/07/09 05:24:43;;;;;;;1.38;1.15;;;;;;;;;;5047570;28;20084;-62
2021/07/09 05:27:12;;;;;;;1.98;1.05;;;;;;;;;;5044603;28;20095;-61
2021/07/09 05:29:40;;;;;;;3.17;0.90;;;;;;;;;;5044089;28;20041;-62
2021/07/09 05:32:09;;;;;;;1.38;1.08;;;;;;;;;;5047966;28;20136;-63
2021/07/09 05:34:38;;;;;;;2.90;0.93;;;;;;;;;;5048810;28;20049;-63
2021/07/09 05:37:06;;;;;;;1.17;1.05;;;;;;;;;;5051062;28;20114;-62
2021/07/09 05:39:35;;;;;;;1.98;0.85;;;;;;;;;;5041456;28;20125;-62
2021/07/09 05:42:04;;;;;;;1.08;0.90;;;;;;;;;;5042062;28;20107;-62
2021/07/09 05:44:34;;;;;;;1.75;1.08;;;;;;;;;;5043055;28;20068;-62
2021/07/09 05:47:03;;;;;;;1.55;0.85;;;;;;;;;;5044644;28;20092;-61
2021/07/09 05:49:32;;;;;;;2.47;1.30;;;;;;;;;;5047417;28;20085;-62
2021/07/09 05:52:00;;;;;;;1.73;1.00;;;;;;;;;;5043584;28;20128;-62
2021/07/09 05:54:29;;;;;;;1.90;1.00;;;;;;;;;;5047018;28;20053;-62
2021/07/09 05:56:57;;;;;;;1.85;1.00;;;;;;;;;;5045168;28;20120;-61
2021/07/09 05:59:26;;;;;;;1.30;1.10;;;;;;;;;;5046803;28;20406;-61
2021/07/09 06:01:58;;;;;;;2.78;1.10;;;;;;;;;;5039939;28;20106;-62
2021/07/09 06:04:26;;;;;;;6.47;1.15;;;;;;;;;;5042588;28;20055;-62
2021/07/09 06:06:55;;;;;;;0.98;0.70;;;;;;;;;;5041201;28;20045;-62
2021/07/09 06:09:24;;;;;;;0.60;0.60;;;;;;;;;;5045647;28;20135;-62
2021/07/09 06:11:53;;;;;;;2.70;0.80;;;;;;;;;;5040636;28;20077;-62
2021/07/09 06:14:22;;;;;;;0.65;0.52;;;;;;;;;;5044280;28;20083;-61
2021/07/09 06:16:50;;;;;;;1.08;0.88;;;;;;;;;;5045836;28;20144;-62
2021/07/09 06:19:20;;;;;;;2.40;0.77;;;;;;;;;;5044760;28;20155;-61
2021/07/09 06:21:48;;;;;;;3.08;0.80;;;;;;;;;;5047469;28;20095;-61
2021/07/09 06:24:17;;;;;;;0.98;0.70;;;;;;;;;;5058088;28;20048;-61
2021/07/09 06:26:45;;;;;;;1.00;0.70;;;;;;;;;;5055768;28;20061;-61
2021/07/09 06:29:14;;;;;;;0.90;0.85;;;;;;;;;;5045710;28;20320;-61
2021/07/09 06:31:42;;;;;;;0.82;0.80;;;;;;;;;;5038682;28;20610;-62
2021/07/09 06:34:11;;;;;;;1.48;1.02;;;;;;;;;;5043721;28;20131;-61
2021/07/09 06:36:40;;;;;;;1.42;0.90;;;;;;;;;;5044531;28;20096;-62
2021/07/09 06:39:09;;;;;;;1.90;1.10;;;;;;;;;;5043196;28;20505;-62
2021/07/09 06:41:37;;;;;;;1.10;0.82;;;;;;;;;;5041182;28;20108;-61
2021/07/09 06:44:06;;;;;;;1.00;0.90;;;;;;;;;;5043610;28;20059;-61
2021/07/09 06:46:35;;;;;;;1.27;0.85;;;;;;;;;;5045913;28;20838;-61
2021/07/09 06:49:04;;;;;;;1.20;0.93;;;;;;;;;;5040492;28;20049;-62
2021/07/09 06:51:32;;;;;;;2.00;1.05;;;;;;;;;;5048056;28;20055;-62
2021/07/09 06:54:02;;;;;;;1.58;0.90;;;;;;;;;;5046292;28;20052;-62
2021/07/09 06:56:31;;;;;;;2.15;0.93;;;;;;;;;;5049152;28;20044;-62
2021/07/09 06:58:59;;;;;;;2.25;1.20;;;;;;;;;;5051844;28;20090;-60
2021/07/09 07:01:29;;;;;;;1.40;1.20;;;;;;;;;;5050060;28;20099;-60
2021/07/09 07:03:57;;;;;;;1.58;1.00;;;;;;;;;;5041120;28;20055;-61
2021/07/09 07:06:26;;;;;;;2.10;1.20;;;;;;;;;;5046448;28;20063;-61
2021/07/09 07:08:55;;;;;;;1.23;1.13;;;;;;;;;;5048234;28;20111;-62
2021/07/09 07:11:25;;;;;;;1.95;1.25;;;;;;;;;;5038859;28;20038;-60
2021/07/09 07:13:53;;;;;;;2.08;1.15;;;;;;;;;;5049042;28;20140;-60
2021/07/09 07:16:22;;;;;;;1.77;1.30;;;;;;;;;;5049032;28;20461;-61
2021/07/09 07:18:51;;;;;;;2.30;1.10;;;;;;;;;;5042896;28;20048;-61
2021/07/09 07:21:20;;;;;;;2.08;1.33;;;;;;;;;;5041692;28;20500;-61
2021/07/09 07:23:48;;;;;;;2.97;1.38;;;;;;;;;;5041499;28;20045;-61
2021/07/09 07:26:17;;;;;;;2.75;1.45;;;;;;;;;;5050537;28;20049;-61
2021/07/09 07:28:47;;;;;;;3.60;1.40;;;;;;;;;;5048662;28;20087;-61
2021/07/09 07:31:15;;;;;;;2.00;1.40;;;;;;;;;;5049478;28;20106;-61
2021/07/09 07:33:44;;;;;;;2.63;1.50;;;;;;;;;;5032669;28;20045;-61
2021/07/09 07:36:15;;;;;;;4.88;1.70;;;;;;;;;;5042051;28;20489;-60
2021/07/09 07:38:45;;;;;;;1.77;1.45;;;;;;;;;;5048723;28;20413;-62
2021/07/09 07:41:13;;;;;;;4.75;1.70;;;;;;;;;;5044071;28;20061;-61
2021/07/09 07:43:43;;;;;;;4.03;1.63;;;;;;;;;;5045710;28;20055;-61
2021/07/09 07:46:14;;;;;;;2.80;1.58;;;;;;;;;;5037417;28;20179;-61
2021/07/09 07:48:43;;;;;;;3.40;1.80;;;;;;;;;;5033839;28;20049;-60
2021/07/09 07:51:11;;;;;;;4.10;1.60;;;;;;;;;;5034335;28;20046;-61
2021/07/09 07:53:40;;;;;;;2.60;1.50;;;;;;;;;;5044334;28;20398;-60
2021/07/09 07:56:08;;;;;;;2.42;1.25;;;;;;;;;;5046035;28;20045;-60
2021/07/09 07:58:37;;;;;;;3.17;1.65;;;;;;;;;;5034869;28;20064;-60
2021/07/09 08:01:06;;;;;;;2.58;1.80;;;;;;;;;;5049590;28;20075;-61
2021/07/09 08:03:37;;;;;;;2.47;2.00;;;;;;;;;;5050231;28;20053;-61
2021/07/09 08:06:06;;;;;;;5.28;1.98;;;;;;;;;;5049822;28;20046;-62
2021/07/09 08:08:36;;;;;;;3.65;1.70;;;;;;;;;;5039843;28;20056;-62
2021/07/09 08:11:05;;;;;;;4.03;2.20;;;;;;;;;;5041714;28;20052;-61
2021/07/09 08:13:34;;;;;;;2.65;1.98;;;;;;;;;;5048677;28;20052;-61
2021/07/09 08:16:03;;;;;;;3.85;1.85;;;;;;;;;;5051522;28;20083;-61
2021/07/09 08:18:32;;;;;;;3.45;2.10;;;;;;;;;;5035522;28;20083;-61
2021/07/09 08:21:02;;;;;;;3.08;2.03;;;;;;;;;;5042242;28;20041;-61
2021/07/09 08:23:32;;;;;;;4.55;2.47;;;;;;;;;;5052274;28;20077;-60
2021/07/09 08:26:01;;;;;;;3.28;1.73;;;;;;;;;;5056554;28;20126;-61
2021/07/09 08:28:31;;;;;;;2.58;1.92;;;;;;;;;;5052408;28;20556;-62
2021/07/09 08:30:59;;;;;;;3.20;1.92;;;;;;;;;;5063754;28;20041;-61
2021/07/09 08:33:28;;;;;;;2.63;1.80;;;;;;;;;;5056572;28;20045;-61
2021/07/09 08:35:58;;;;;;;3.75;1.70;;;;;;;;;;5053663;28;20055;-61
2021/07/09 08:38:28;;;;;;;1.98;1.60;;;;;;;;;;5054329;28;20333;-61
2021/07/09 08:40:57;;;;;;;2.20;1.50;;;;;;;;;;5053801;28;20120;-61
2021/07/09 08:43:32;;;;;;;2.58;1.40;;;;;;;;;;5054604;28;20071;-62
2021/07/09 08:46:02;;;;;;;1.92;1.58;;;;;;;;;;5051177;28;20318;-61
2021/07/09 08:48:37;;;;;;;3.00;1.60;;;;;;;;;;5056475;28;20079;-61
2021/07/09 08:51:06;;;;;;;2.58;2.00;;;;;;;;;;5049385;28;20075;-60
2021/07/09 08:53:38;;;;;;;2.67;1.55;;;;;;;;;;5048088;28;20045;-60
2021/07/09 08:56:07;;;;;;;3.22;1.77;;;;;;;;;;5043399;28;20504;-62
2021/07/09 08:58:36;;;;;;;3.25;1.60;;;;;;;;;;5040991;28;20048;-61
2021/07/09 09:01:06;;;;;;;3.03;1.52;;;;;;;;;;5047198;28;20052;-61
2021/07/09 09:03:35;;;;;;;2.78;1.60;;;;;;;;;;5044161;28;20468;-65
2021/07/09 09:06:04;;;;;;;2.78;1.58;;;;;;;;;;5048074;28;20477;-61
2021/07/09 09:08:34;;;;;;;2.30;1.50;;;;;;;;;;5054646;28;20048;-63
2021/07/09 09:11:05;;;;;;;1.73;1.42;;;;;;;;;;5049293;28;20084;-62
2021/07/09 09:13:35;;;;;;;2.22;1.45;;;;;;;;;;5050056;28;20041;-61
2021/07/09 09:16:06;;;;;;;3.20;1.77;;;;;;;;;;5047384;28;20428;-61
2021/07/09 09:18:37;;;;;;;2.15;1.70;;;;;;;;;;5041535;28;20134;-62
2021/07/09 09:21:07;;;;;;;2.55;1.65;;;;;;;;;;5050163;28;20135;-62
2021/07/09 09:23:36;;;;;;;2.67;1.60;;;;;;;;;;5044870;28;20048;-62
2021/07/09 09:26:07;;;;;;;3.30;1.52;;;;;;;;;;5032451;28;20079;-61
2021/07/09 09:28:37;;;;;;;2.53;1.58;;;;;;;;;;5056049;28;20044;-61
2021/07/09 09:31:06;;;;;;;1.50;1.40;;;;;;;;;;5053915;28;20048;-61
2021/07/09 09:33:36;;;;;;;3.45;1.60;;;;;;;;;;5047766;28;20548;-63
2021/07/09 09:36:09;;;;;;;1.52;1.33;;;;;;;;;;5046857;28;20045;-62
2021/07/09 09:38:38;;;;;;;2.28;1.40;;;;;;;;;;5043382;28;20513;-63
2021/07/09 09:41:18;;;;;;;2.53;1.20;;;;;;;;;;5044497;28;20485;-62
2021/07/09 09:43:47;;;;;;;2.08;1.20;;;;;;;;;;5042579;28;20444;-61
2021/07/09 09:46:25;;;;;;;2.17;1.23;;;;;;;;;;5038353;28;20574;-61
2021/07/09 09:48:54;;;;;;;2.55;1.33;;;;;;;;;;5055910;28;20051;-61
2021/07/09 09:51:26;;;;;;;2.08;1.25;;;;;;;;;;5048600;28;20067;-61
2021/07/09 09:53:56;;;;;;;3.80;1.52;;;;;;;;;;5040384;28;20045;-61
2021/07/09 09:56:39;;;;;;;2.90;1.40;;;;;;;;;;5050305;28;20064;-61
2021/07/09 09:59:21;;;;;;;3.70;1.50;;;;;;;;;;5051807;28;20102;-62
2021/07/09 10:01:51;;;;;;;4.43;1.70;;;;;;;;;;5049017;28;20056;-62
2021/07/09 10:04:20;;;;;;;2.15;1.38;;;;;;;;;;5042322;28;20077;-62
2021/07/09 10:06:49;;;;;;;1.60;1.25;;;;;;;;;;5049889;28;20049;-61
2021/07/09 10:09:18;;;;;;;3.58;1.83;;;;;;;;;;5048333;28;20045;-61
2021/07/09 10:11:49;;;;;;;4.15;1.60;;;;;;;;;;5039943;28;20049;-61
2021/07/09 10:14:18;;;;;;;1.98;1.73;;;;;;;;;;5043815;28;20049;-61
2021/07/09 10:16:48;;;;;;;3.20;1.73;;;;;;;;;;5057478;28;20410;-61
2021/07/09 10:19:20;;;;;;;2.58;1.77;;;;;;;;;;5055220;28;20057;-61
2021/07/09 10:21:49;;;;;;;2.17;1.85;;;;;;;;;;5039646;28;20590;-61
2021/07/09 10:24:19;;;;;;;2.47;1.95;;;;;;;;;;5042258;28;20106;-60
2021/07/09 10:26:51;;;;;;;2.58;2.08;;;;;;;;;;5045781;28;20080;-61
2021/07/09 10:29:20;;;;;;;2.88;1.98;;;;;;;;;;5049068;28;21381;-61
2021/07/09 10:31:50;;;;;;;3.67;2.10;;;;;;;;;;5047391;28;20053;-61
2021/07/09 10:34:29;;;;;;;3.05;2.30;;;;;;;;;;5046856;28;20049;-61
2021/07/09 10:37:00;;;;;;;4.43;2.22;;;;;;;;;;5034271;28;20051;-62
2021/07/09 10:39:39;;;;;;;3.90;2.25;;;;;;;;;;5027492;28;20049;-61
2021/07/09 10:42:23;;;;;;;4.38;2.20;;;;;;;;;;5046851;28;20052;-61
2021/07/09 10:44:58;;;;;;;2.50;2.30;;;;;;;;;;5032434;28;20404;-62
2021/07/09 10:47:37;;;;;;;2.50;2.10;;;;;;;;;;5053925;28;20144;-61
2021/07/09 10:50:07;;;;;;;3.65;2.30;;;;;;;;;;5046759;28;20049;-61
2021/07/09 10:52:57;;;;;;;5.22;2.28;;;;;;;;;;5033693;28;20519;-60
2021/07/09 10:55:52;;;;;;;3.13;2.15;;;;;;;;;;5045832;28;20140;-61
2021/07/09 10:58:26;;;;;;;3.50;2.88;;;;;;;;;;5046996;28;20101;-60
2021/07/09 11:00:56;;;;;;;3.05;2.58;;;;;;;;;;5050063;28;20100;-61
2021/07/09 11:03:26;;;;;;;5.30;2.80;;;;;;;;;;5040338;28;20485;-61
2021/07/09 11:06:00;;;;;;;4.80;3.28;;;;;;;;;;5045320;28;20041;-60
2021/07/09 11:08:53;;;;;;;5.97;3.70;;;;;;;;;;5058789;28;20051;-61
2021/07/09 11:11:34;;;;;;;4.18;2.97;;;;;;;;;;5048956;28;20842;-61
2021/07/09 11:14:09;;;;;;;6.20;3.00;;;;;;;;;;5045082;28;20056;-62
2021/07/09 11:16:43;;;;;;;4.78;3.20;;;;;;;;;;5027051;28;20060;-61
2021/07/09 11:19:13;;;;;;;6.97;3.38;;;;;;;;;;5039706;28;20145;-62
2021/07/09 11:21:47;;;;;;;4.88;3.95;;;;;;;;;;5047785;28;20084;-63
2021/07/09 11:24:17;;;;;;;5.63;3.60;;;;;;;;;;5031616;28;20053;-63
2021/07/09 11:26:50;;;;;;;;;;;;;;;;;;5049774;28;20052;-63
2021/07/09 11:29:27;;;;;;;5.65;3.80;;;;;;;;;;5045308;28;20381;-62
2021/07/09 11:32:01;;;;;;;4.80;3.75;;;;;;;;;;5042815;28;20065;-62
2021/07/09 11:34:31;;;;;;;7.45;4.30;;;;;;;;;;5050815;28;20107;-62
2021/07/09 11:37:02;;;;;;;4.80;3.90;;;;;;;;;;5045917;28;20285;-62
2021/07/09 11:39:32;;;;;;;6.45;3.78;;;;;;;;;;5041746;28;20050;-62
2021/07/09 11:42:02;;;;;;;6.00;3.70;;;;;;;;;;5049187;28;20070;-61
2021/07/09 11:44:33;;;;;;;6.13;3.95;;;;;;;;;;5035654;28;20045;-61
2021/07/09 11:47:04;;;;;;;8.25;4.25;;;;;;;;;;5051326;28;20332;-61
2021/07/09 11:49:34;;;;;;;5.35;4.03;;;;;;;;;;5047049;28;20155;-61
2021/07/09 11:52:04;;;;;;;6.22;3.60;;;;;;;;;;5050239;28;20075;-62
2021/07/09 11:54:34;;;;;;;6.65;3.58;;;;;;;;;;5057058;28;20070;-62
2021/07/09 11:57:07;;;;;;;4.93;3.60;;;;;;;;;;5043585;28;20524;-61
2021/07/09 11:59:37;;;;;;;4.60;3.47;;;;;;;;;;5050855;28;20083;-62
2021/07/09 12:02:16;;;;;;;5.53;3.88;;;;;;;;;;5030309;28;20460;-61
2021/07/09 12:04:46;;;;;;;6.15;3.45;;;;;;;;;;5056822;28;20053;-62
2021/07/09 12:07:19;;;;;;;4.75;3.30;;;;;;;;;;5040287;28;20510;-61
2021/07/09 12:09:48;;;;;;;5.03;3.83;;;;;;;;;;5044631;28;20048;-61
2021/07/09 12:12:17;;;;;;;7.05;3.58;;;;;;;;;;5050308;28;20075;-62
2021/07/09 12:15:02;;;;;;;4.70;3.20;;;;;;;;;;5048101;28;20466;-61
2021/07/09 12:17:31;;;;;;;6.30;3.30;;;;;;;;;;5045749;28;20496;-61
2021/07/09 12:20:01;;;;;;;4.53;3.22;;;;;;;;;;5049794;28;20284;-61
2021/07/09 12:22:30;;;;;;;4.78;3.38;;;;;;;;;;5043470;28;20049;-61
2021/07/09 12:25:01;;;;;;;6.38;4.00;;;;;;;;;;5058854;28;20052;-60
2021/07/09 12:27:31;;;;;;;7.03;4.40;;;;;;;;;;5059847;28;20060;-61
2021/07/09 12:30:04;;;;;;;7.28;4.18;;;;;;;;;;5054585;28;20129;-61
2021/07/09 12:32:33;;;;;;;6.90;4.22;;;;;;;;;;5056866;28;20400;-62
2021/07/09 12:35:03;;;;;;;6.95;3.78;;;;;;;;;;5063931;28;20053;-61
2021/07/09 12:37:31;;;;;;;5.28;4.13;;;;;;;;;;5048400;28;20132;-62
2021/07/09 12:40:24;;;;;;;5.78;4.28;;;;;;;;;;5047792;28;20049;-61
2021/07/09 12:42:52;;;;;;;7.18;4.40;;;;;;;;;;5025546;28;20115;-61
2021/07/09 12:45:33;;;;;;;7.05;4.18;;;;;;;;;;5044352;28;20044;-61
2021/07/09 12:48:05;;;;;;;6.80;4.53;;;;;;;;;;5044792;28;20055;-61
2021/07/09 12:50:38;;;;;;;6.30;4.85;;;;;;;;;;5053136;28;20722;-61
2021/07/09 12:53:19;;;;;;;5.00;4.25;;;;;;;;;;5044963;28;20076;-61
2021/07/09 12:55:48;;;;;;;7.03;4.22;;;;;;;;;;5051614;28;20041;-61
2021/07/09 12:58:18;;;;;;;5.32;3.80;;;;;;;;;;5055215;28;20045;-61
2021/07/09 13:00:49;;;;;;;6.32;3.67;;;;;;;;;;5048614;28;20088;-61
2021/07/09 13:03:26;;;;;;;6.38;4.10;;;;;;;;;;5061237;28;20139;-61
2021/07/09 13:06:01;;;;;;;7.88;3.53;;;;;;;;;;5048602;28;20044;-61
2021/07/09 13:08:30;;;;;;;7.30;4.53;;;;;;;;;;5042638;28;20423;-61
2021/07/09 13:11:09;;;;;;;8.38;4.75;;;;;;;;;;5042546;28;20110;-62
2021/07/09 13:13:39;;;;;;;8.77;5.35;;;;;;;;;;5042299;28;20095;-61
2021/07/09 13:16:10;;;;;;;8.25;5.20;;;;;;;;;;5053966;28;20040;-62
2021/07/09 13:18:40;;;;;;;8.52;5.22;;;;;;;;;;5038187;28;20133;-61
2021/07/09 13:21:10;;;;;;;8.98;5.15;;;;;;;;;;5059210;28;20049;-62
2021/07/09 13:23:40;;;;;;;10.40;5.40;;;;;;;;;;5034362;28;20064;-61
2021/07/09 13:26:12;;;;;;;18.13;6.15;;;;;;;;;;5042338;28;20063;-62
2021/07/09 13:28:44;;;;;;;6.40;4.38;;;;;;;;;;5048551;28;20045;-62
2021/07/09 13:31:14;;;;;;;4.68;3.85;;;;;;;;;;5050375;28;20076;-62
2021/07/09 13:33:44;;;;;;;6.35;4.63;;;;;;;;;;5053373;28;20116;-61
2021/07/09 13:36:15;;;;;;;7.78;4.43;;;;;;;;;;5040305;28;20110;-62
2021/07/09 13:38:46;;;;;;;4.97;4.22;;;;;;;;;;5046618;28;20415;-62
2021/07/09 13:41:16;;;;;;;7.90;4.53;;;;;;;;;;5045254;28;20096;-62
2021/07/09 13:43:45;;;;;;;6.88;4.28;;;;;;;;;;5047474;28;20132;-61
2021/07/09 13:46:15;;;;;;;6.75;4.82;;;;;;;;;;5052593;28;20880;-61
2021/07/09 13:48:44;;;;;;;5.65;4.32;;;;;;;;;;5053165;28;20057;-60
2021/07/09 13:51:14;;;;;;;5.70;4.28;;;;;;;;;;5045459;28;20072;-62
2021/07/09 13:53:42;;;;;;;4.43;3.50;;;;;;;;;;5057080;28;20419;-62
2021/07/09 13:56:11;;;;;;;6.00;3.83;;;;;;;;;;5066764;28;20101;-62
2021/07/09 13:58:42;;;;;;;7.90;3.58;;;;;;;;;;5046106;28;20075;-62
2021/07/09 14:01:14;;;;;;;5.00;3.38;;;;;;;;;;5046291;28;20061;-62
2021/07/09 14:03:46;;;;;;;9.32;4.07;;;;;;;;;;5049485;28;20045;-62
2021/07/09 14:06:15;;;;;;;7.55;3.40;;;;;;;;;;5040270;28;20135;-61
2021/07/09 14:08:44;;;;;;;4.85;3.00;;;;;;;;;;5039197;28;20144;-62
2021/07/09 14:11:13;;;;;;;5.18;3.67;;;;;;;;;;5047120;28;20087;-61
2021/07/09 14:13:41;;;;;;;7.95;3.63;;;;;;;;;;5038044;28;20041;-62
2021/07/09 14:16:10;;;;;;;6.22;3.67;;;;;;;;;;5054290;28;20057;-61
2021/07/09 14:18:39;;;;;;;8.32;3.65;;;;;;;;;;5052654;28;20472;-62
2021/07/09 14:21:09;;;;;;;5.65;3.20;;;;;;;;;;5062386;28;20048;-61
2021/07/09 14:23:37;;;;;;;5.63;3.17;;;;;;;;;;5044733;28;20153;-61
2021/07/09 14:26:06;;;;;;;4.65;3.10;;;;;;;;;;5033940;28;20132;-62
2021/07/09 14:28:34;;;;;;;4.18;2.70;;;;;;;;;;5051050;28;20130;-62
2021/07/09 14:31:02;;;;;;;4.95;3.00;;;;;;;;;;5046741;28;20099;-61
2021/07/09 14:33:31;;;;;;;8.55;3.45;;;;;;;;;;5048256;28;21228;-61
2021/07/09 14:36:00;;;;;;;7.20;3.80;;;;;;;;;;5034370;28;20362;-62
2021/07/09 14:38:29;;;;;;;4.50;3.53;;;;;;;;;;5037407;28;20580;-61
2021/07/09 14:40:58;;;;;;;4.93;3.10;;;;;;;;;;5049621;28;20176;-62
2021/07/09 14:43:26;;;;;;;3.95;2.90;;;;;;;;;;5033525;28;20357;-61
2021/07/09 14:45:55;;;;;;;4.53;3.00;;;;;;;;;;5041889;28;20072;-61
2021/07/09 14:48:23;;;;;;;4.43;2.67;;;;;;;;;;5030961;28;20076;-61
2021/07/09 14:50:52;;;;;;;5.78;2.72;;;;;;;;;;5041286;28;20357;-62
2021/07/09 14:53:20;;;;;;;2.92;2.50;;;;;;;;;;5043231;28;20132;-62
2021/07/09 14:55:50;;;;;;;4.07;2.67;;;;;;;;;;5045534;28;20065;-61
2021/07/09 14:58:18;;;;;;;4.65;2.63;;;;;;;;;;5045189;28;20148;-61
2021/07/09 15:00:47;;;;;;;3.90;2.28;;;;;;;;;;5041236;28;20136;-61